sensor_id;sensor_type;location;lat;lon;timestamp;temperature;humidity
41058;DHT22;27499;48.884;2.258;2022-12-07T00:01:44;5.80;99.90
41058;DHT22;27499;48.884;2.258;2022-12-07T00:04:13;5.80;99.90
41058;DHT22;27499;48.884;2.258;2022-12-07T00:06:45;5.80;99.90
41058;DHT22;27499;48.884;2.258;2022-12-07T00:09:15;5.80;99.90
41058;DHT22;27499;48.884;2.258;2022-12-07T00:11:42;5.70;99.90
41058;DHT22;27499;48.884;2.258;2022-12-07T00:14:14;5.80;99.90
41058;DHT22;27499;48.884;2.258;2022-12-07T00:16:42;5.80;99.90
41058;DHT22;27499;48.884;2.258;2022-12-07T00:19:10;5.80;99.90
41058;DHT22;27499;48.884;2.258;2022-12-07T00:21:38;5.70;99.90
41058;DHT22;27499;48.884;2.258;2022-12-07T00:24:05;5.70;99.90
41058;DHT22;27499;48.884;2.258;2022-12-07T00:26:38;5.70;99.90
41058;DHT22;27499;48.884;2.258;2022-12-07T00:29:25;5.70;99.90
41058;DHT22;27499;48.884;2.258;2022-12-07T00:31:52;5.70;99.90
41058;DHT22;27499;48.884;2.258;2022-12-07T00:34:20;5.80;99.90
41058;DHT22;27499;48.884;2.258;2022-12-07T00:36:48;5.80;99.90
41058;DHT22;27499;48.884;2.258;2022-12-07T00:39:16;5.80;99.90
41058;DHT22;27499;48.884;2.258;2022-12-07T00:41:43;5.80;99.90
41058;DHT22;27499;48.884;2.258;2022-12-07T00:44:10;5.80;99.90
41058;DHT22;27499;48.884;2.258;2022-12-07T00:46:37;5.80;99.90
41058;DHT22;27499;48.884;2.258;2022-12-07T00:49:04;5.80;99.90
41058;DHT22;27499;48.884;2.258;2022-12-07T00:51:31;5.80;99.90
41058;DHT22;27499;48.884;2.258;2022-12-07T00:53:58;5.80;99.90
41058;DHT22;27499;48.884;2.258;2022-12-07T00:56:27;5.80;99.90
41058;DHT22;27499;48.884;2.258;2022-12-07T00:58:56;5.80;99.90
41058;DHT22;27499;48.884;2.258;2022-12-07T01:01:26;5.80;99.90
41058;DHT22;27499;48.884;2.258;2022-12-07T01:03:54;5.80;99.90
41058;DHT22;27499;48.884;2.258;2022-12-07T01:06:22;5.80;99.90
41058;DHT22;27499;48.884;2.258;2022-12-07T01:08:49;5.80;99.90
41058;DHT22;27499;48.884;2.258;2022-12-07T01:11:19;5.70;99.90
41058;DHT22;27499;48.884;2.258;2022-12-07T01:13:47;5.80;99.90
41058;DHT22;27499;48.884;2.258;2022-12-07T01:16:16;5.80;99.90
41058;DHT22;27499;48.884;2.258;2022-12-07T01:18:46;5.80;99.90
41058;DHT22;27499;48.884;2.258;2022-12-07T01:21:23;5.80;99.90
41058;DHT22;27499;48.884;2.258;2022-12-07T01:23:50;5.80;99.90
41058;DHT22;27499;48.884;2.258;2022-12-07T01:26:20;5.80;99.90
41058;DHT22;27499;48.884;2.258;2022-12-07T01:28:47;5.80;99.90
41058;DHT22;27499;48.884;2.258;2022-12-07T01:31:17;5.80;99.90
41058;DHT22;27499;48.884;2.258;2022-12-07T01:33:48;5.70;99.90
41058;DHT22;27499;48.884;2.258;2022-12-07T01:36:21;5.70;99.90
41058;DHT22;27499;48.884;2.258;2022-12-07T01:38:50;5.60;99.90
41058;DHT22;27499;48.884;2.258;2022-12-07T01:41:21;5.60;99.90
41058;DHT22;27499;48.884;2.258;2022-12-07T01:46:33;5.40;99.90
41058;DHT22;27499;48.884;2.258;2022-12-07T01:49:01;5.40;99.90
41058;DHT22;27499;48.884;2.258;2022-12-07T01:51:30;5.40;99.90
41058;DHT22;27499;48.884;2.258;2022-12-07T01:53:57;5.40;99.90
41058;DHT22;27499;48.884;2.258;2022-12-07T01:56:26;5.40;99.90
41058;DHT22;27499;48.884;2.258;2022-12-07T01:58:56;5.40;99.90
41058;DHT22;27499;48.884;2.258;2022-12-07T02:01:24;5.40;99.90
41058;DHT22;27499;48.884;2.258;2022-12-07T02:03:51;5.30;99.90
41058;DHT22;27499;48.884;2.258;2022-12-07T02:06:22;5.30;99.90
41058;DHT22;27499;48.884;2.258;2022-12-07T02:08:50;5.30;99.90
41058;DHT22;27499;48.884;2.258;2022-12-07T02:11:18;5.30;99.90
41058;DHT22;27499;48.884;2.258;2022-12-07T02:13:46;5.30;99.90
41058;DHT22;27499;48.884;2.258;2022-12-07T02:30:12;5.30;99.90
41058;DHT22;27499;48.884;2.258;2022-12-07T02:35:21;5.20;99.90
41058;DHT22;27499;48.884;2.258;2022-12-07T02:38:18;5.20;99.90
41058;DHT22;27499;48.884;2.258;2022-12-07T02:41:00;5.20;99.90
41058;DHT22;27499;48.884;2.258;2022-12-07T02:43:34;5.20;99.90
41058;DHT22;27499;48.884;2.258;2022-12-07T02:46:06;5.20;99.90
41058;DHT22;27499;48.884;2.258;2022-12-07T02:48:34;5.20;99.90
41058;DHT22;27499;48.884;2.258;2022-12-07T02:51:02;5.20;99.90
41058;DHT22;27499;48.884;2.258;2022-12-07T02:53:33;5.20;99.90
41058;DHT22;27499;48.884;2.258;2022-12-07T02:56:22;5.20;99.90
41058;DHT22;27499;48.884;2.258;2022-12-07T02:58:59;5.10;99.90
41058;DHT22;27499;48.884;2.258;2022-12-07T03:04:34;5.10;99.90
41058;DHT22;27499;48.884;2.258;2022-12-07T03:07:24;5.10;99.90
41058;DHT22;27499;48.884;2.258;2022-12-07T03:11:00;5.10;99.90
41058;DHT22;27499;48.884;2.258;2022-12-07T03:13:07;5.00;99.90
41058;DHT22;27499;48.884;2.258;2022-12-07T03:15:49;5.00;99.90
41058;DHT22;27499;48.884;2.258;2022-12-07T03:18:21;5.00;99.90
41058;DHT22;27499;48.884;2.258;2022-12-07T03:20:52;5.00;99.90
41058;DHT22;27499;48.884;2.258;2022-12-07T03:23:23;5.00;99.90
41058;DHT22;27499;48.884;2.258;2022-12-07T03:25:56;5.00;99.90
41058;DHT22;27499;48.884;2.258;2022-12-07T03:28:33;5.00;99.90
41058;DHT22;27499;48.884;2.258;2022-12-07T03:31:12;5.00;99.90
41058;DHT22;27499;48.884;2.258;2022-12-07T03:33:59;5.00;99.90
41058;DHT22;27499;48.884;2.258;2022-12-07T03:36:32;5.00;99.90
41058;DHT22;27499;48.884;2.258;2022-12-07T03:41:39;5.00;99.90
41058;DHT22;27499;48.884;2.258;2022-12-07T03:44:11;5.10;99.90
41058;DHT22;27499;48.884;2.258;2022-12-07T03:49:36;5.00;99.90
41058;DHT22;27499;48.884;2.258;2022-12-07T03:55:38;5.00;99.90
41058;DHT22;27499;48.884;2.258;2022-12-07T03:58:09;5.00;99.90
41058;DHT22;27499;48.884;2.258;2022-12-07T04:00:37;5.00;99.90
41058;DHT22;27499;48.884;2.258;2022-12-07T04:03:04;5.00;99.90
41058;DHT22;27499;48.884;2.258;2022-12-07T04:05:31;5.00;99.90
41058;DHT22;27499;48.884;2.258;2022-12-07T04:07:58;4.90;99.90
41058;DHT22;27499;48.884;2.258;2022-12-07T04:10:25;4.90;99.90
41058;DHT22;27499;48.884;2.258;2022-12-07T04:12:52;4.80;99.90
41058;DHT22;27499;48.884;2.258;2022-12-07T04:15:19;4.70;99.90
41058;DHT22;27499;48.884;2.258;2022-12-07T04:17:45;4.70;99.90
41058;DHT22;27499;48.884;2.258;2022-12-07T04:20:13;4.70;99.90
41058;DHT22;27499;48.884;2.258;2022-12-07T04:22:40;4.70;99.90
41058;DHT22;27499;48.884;2.258;2022-12-07T04:25:07;4.70;99.90
41058;DHT22;27499;48.884;2.258;2022-12-07T04:27:34;4.80;99.90
41058;DHT22;27499;48.884;2.258;2022-12-07T04:30:01;4.80;99.90
41058;DHT22;27499;48.884;2.258;2022-12-07T04:32:28;4.80;99.90
41058;DHT22;27499;48.884;2.258;2022-12-07T04:34:55;4.80;99.90
41058;DHT22;27499;48.884;2.258;2022-12-07T04:37:23;4.80;99.90
41058;DHT22;27499;48.884;2.258;2022-12-07T04:39:49;4.80;99.90
41058;DHT22;27499;48.884;2.258;2022-12-07T04:42:16;4.80;99.90
41058;DHT22;27499;48.884;2.258;2022-12-07T04:44:43;4.80;99.90
41058;DHT22;27499;48.884;2.258;2022-12-07T04:47:11;4.80;99.90
41058;DHT22;27499;48.884;2.258;2022-12-07T04:49:38;4.80;99.90
41058;DHT22;27499;48.884;2.258;2022-12-07T04:52:05;4.80;99.90
41058;DHT22;27499;48.884;2.258;2022-12-07T04:54:32;4.80;99.90
41058;DHT22;27499;48.884;2.258;2022-12-07T04:56:59;4.80;99.90
41058;DHT22;27499;48.884;2.258;2022-12-07T04:59:26;4.90;99.90
41058;DHT22;27499;48.884;2.258;2022-12-07T05:01:53;4.90;99.90
41058;DHT22;27499;48.884;2.258;2022-12-07T05:04:20;4.90;99.90
41058;DHT22;27499;48.884;2.258;2022-12-07T05:06:46;4.90;99.90
41058;DHT22;27499;48.884;2.258;2022-12-07T05:09:13;4.90;99.90
41058;DHT22;27499;48.884;2.258;2022-12-07T05:11:40;4.90;99.90
41058;DHT22;27499;48.884;2.258;2022-12-07T05:14:16;4.90;99.90
41058;DHT22;27499;48.884;2.258;2022-12-07T05:16:45;4.90;99.90
41058;DHT22;27499;48.884;2.258;2022-12-07T05:19:13;4.90;99.90
41058;DHT22;27499;48.884;2.258;2022-12-07T05:21:40;4.90;99.90
41058;DHT22;27499;48.884;2.258;2022-12-07T05:24:08;4.90;99.90
41058;DHT22;27499;48.884;2.258;2022-12-07T05:26:36;4.90;99.90
41058;DHT22;27499;48.884;2.258;2022-12-07T05:29:03;4.90;99.90
41058;DHT22;27499;48.884;2.258;2022-12-07T05:31:30;4.90;99.90
41058;DHT22;27499;48.884;2.258;2022-12-07T05:33:58;4.90;99.90
41058;DHT22;27499;48.884;2.258;2022-12-07T05:36:24;4.90;99.90
41058;DHT22;27499;48.884;2.258;2022-12-07T05:38:51;4.90;99.90
41058;DHT22;27499;48.884;2.258;2022-12-07T05:41:19;4.90;99.90
41058;DHT22;27499;48.884;2.258;2022-12-07T05:44:05;4.90;99.90
41058;DHT22;27499;48.884;2.258;2022-12-07T05:46:32;4.90;99.90
41058;DHT22;27499;48.884;2.258;2022-12-07T05:49:00;5.00;99.90
41058;DHT22;27499;48.884;2.258;2022-12-07T05:51:27;5.00;99.90
41058;DHT22;27499;48.884;2.258;2022-12-07T05:53:54;5.00;99.90
41058;DHT22;27499;48.884;2.258;2022-12-07T05:56:21;5.00;99.90
41058;DHT22;27499;48.884;2.258;2022-12-07T05:58:48;5.00;99.90
41058;DHT22;27499;48.884;2.258;2022-12-07T06:01:34;5.00;99.90
41058;DHT22;27499;48.884;2.258;2022-12-07T06:04:00;5.00;99.90
41058;DHT22;27499;48.884;2.258;2022-12-07T06:06:27;5.10;99.90
41058;DHT22;27499;48.884;2.258;2022-12-07T06:08:54;5.10;99.90
41058;DHT22;27499;48.884;2.258;2022-12-07T06:11:21;5.00;99.90
41058;DHT22;27499;48.884;2.258;2022-12-07T06:14:07;5.00;99.90
41058;DHT22;27499;48.884;2.258;2022-12-07T06:16:34;5.00;99.90
41058;DHT22;27499;48.884;2.258;2022-12-07T06:19:01;5.00;99.90
41058;DHT22;27499;48.884;2.258;2022-12-07T06:21:28;5.00;99.90
41058;DHT22;27499;48.884;2.258;2022-12-07T06:23:55;5.00;99.90
41058;DHT22;27499;48.884;2.258;2022-12-07T06:26:22;5.00;99.90
41058;DHT22;27499;48.884;2.258;2022-12-07T06:28:49;5.00;99.90
41058;DHT22;27499;48.884;2.258;2022-12-07T06:31:16;5.00;99.90
41058;DHT22;27499;48.884;2.258;2022-12-07T06:33:43;5.00;99.90
41058;DHT22;27499;48.884;2.258;2022-12-07T06:36:10;5.00;99.90
41058;DHT22;27499;48.884;2.258;2022-12-07T06:38:37;5.00;99.90
41058;DHT22;27499;48.884;2.258;2022-12-07T06:41:04;5.00;99.90
41058;DHT22;27499;48.884;2.258;2022-12-07T06:43:31;5.00;99.90
41058;DHT22;27499;48.884;2.258;2022-12-07T06:45:58;5.10;99.90
41058;DHT22;27499;48.884;2.258;2022-12-07T06:48:25;5.00;99.90
41058;DHT22;27499;48.884;2.258;2022-12-07T06:50:52;5.10;99.90
41058;DHT22;27499;48.884;2.258;2022-12-07T06:53:21;5.10;99.90
41058;DHT22;27499;48.884;2.258;2022-12-07T06:55:48;5.10;99.90
41058;DHT22;27499;48.884;2.258;2022-12-07T06:58:16;5.20;99.90
41058;DHT22;27499;48.884;2.258;2022-12-07T07:00:44;5.20;99.90
41058;DHT22;27499;48.884;2.258;2022-12-07T07:03:11;5.20;99.90
41058;DHT22;27499;48.884;2.258;2022-12-07T07:05:38;5.30;99.90
41058;DHT22;27499;48.884;2.258;2022-12-07T07:08:06;5.30;99.90
41058;DHT22;27499;48.884;2.258;2022-12-07T07:10:49;5.30;99.90
41058;DHT22;27499;48.884;2.258;2022-12-07T07:13:17;5.30;99.90
41058;DHT22;27499;48.884;2.258;2022-12-07T07:15:44;5.30;99.90
41058;DHT22;27499;48.884;2.258;2022-12-07T07:18:12;5.30;99.90
41058;DHT22;27499;48.884;2.258;2022-12-07T07:20:39;5.30;99.90
41058;DHT22;27499;48.884;2.258;2022-12-07T07:23:06;5.40;99.90
41058;DHT22;27499;48.884;2.258;2022-12-07T07:25:34;5.40;99.90
41058;DHT22;27499;48.884;2.258;2022-12-07T07:28:01;5.40;99.90
41058;DHT22;27499;48.884;2.258;2022-12-07T07:30:28;5.40;99.90
41058;DHT22;27499;48.884;2.258;2022-12-07T07:33:01;5.40;99.90
41058;DHT22;27499;48.884;2.258;2022-12-07T07:35:29;5.40;99.90
41058;DHT22;27499;48.884;2.258;2022-12-07T07:37:57;5.40;99.90
41058;DHT22;27499;48.884;2.258;2022-12-07T07:40:24;5.50;99.90
41058;DHT22;27499;48.884;2.258;2022-12-07T07:42:53;5.40;99.90
41058;DHT22;27499;48.884;2.258;2022-12-07T07:45:22;5.50;99.90
41058;DHT22;27499;48.884;2.258;2022-12-07T07:47:49;5.40;99.90
41058;DHT22;27499;48.884;2.258;2022-12-07T07:50:16;5.40;99.90
41058;DHT22;27499;48.884;2.258;2022-12-07T07:52:44;5.50;99.90
41058;DHT22;27499;48.884;2.258;2022-12-07T07:55:12;5.50;99.90
41058;DHT22;27499;48.884;2.258;2022-12-07T07:57:40;5.50;99.90
41058;DHT22;27499;48.884;2.258;2022-12-07T08:00:11;5.50;99.90
41058;DHT22;27499;48.884;2.258;2022-12-07T08:02:40;5.50;99.90
41058;DHT22;27499;48.884;2.258;2022-12-07T08:05:07;5.50;99.90
41058;DHT22;27499;48.884;2.258;2022-12-07T08:07:34;5.60;99.90
41058;DHT22;27499;48.884;2.258;2022-12-07T08:10:02;5.60;99.90
41058;DHT22;27499;48.884;2.258;2022-12-07T08:12:29;5.60;99.90
41058;DHT22;27499;48.884;2.258;2022-12-07T08:14:56;5.60;99.90
41058;DHT22;27499;48.884;2.258;2022-12-07T08:17:23;5.60;99.90
41058;DHT22;27499;48.884;2.258;2022-12-07T08:19:50;5.60;99.90
41058;DHT22;27499;48.884;2.258;2022-12-07T08:22:17;5.70;99.90
41058;DHT22;27499;48.884;2.258;2022-12-07T08:24:44;5.70;99.90
41058;DHT22;27499;48.884;2.258;2022-12-07T08:27:11;5.70;99.90
41058;DHT22;27499;48.884;2.258;2022-12-07T08:29:38;5.80;99.90
41058;DHT22;27499;48.884;2.258;2022-12-07T08:32:05;5.80;99.90
41058;DHT22;27499;48.884;2.258;2022-12-07T08:34:35;5.80;99.90
41058;DHT22;27499;48.884;2.258;2022-12-07T08:37:03;5.80;99.90
41058;DHT22;27499;48.884;2.258;2022-12-07T08:39:30;5.80;99.90
41058;DHT22;27499;48.884;2.258;2022-12-07T08:41:58;5.80;99.90
41058;DHT22;27499;48.884;2.258;2022-12-07T08:44:25;5.80;99.90
41058;DHT22;27499;48.884;2.258;2022-12-07T08:46:57;5.80;99.90
41058;DHT22;27499;48.884;2.258;2022-12-07T08:49:33;5.90;99.90
41058;DHT22;27499;48.884;2.258;2022-12-07T08:52:04;5.90;99.90
41058;DHT22;27499;48.884;2.258;2022-12-07T08:54:33;5.90;99.90
41058;DHT22;27499;48.884;2.258;2022-12-07T08:57:03;5.90;99.90
41058;DHT22;27499;48.884;2.258;2022-12-07T08:59:31;6.00;99.90
41058;DHT22;27499;48.884;2.258;2022-12-07T09:01:59;6.00;99.90
41058;DHT22;27499;48.884;2.258;2022-12-07T09:04:26;6.00;99.90
41058;DHT22;27499;48.884;2.258;2022-12-07T09:06:54;6.10;99.90
41058;DHT22;27499;48.884;2.258;2022-12-07T09:09:22;6.10;99.90
41058;DHT22;27499;48.884;2.258;2022-12-07T09:11:48;6.10;99.90
41058;DHT22;27499;48.884;2.258;2022-12-07T09:14:15;6.10;99.90
41058;DHT22;27499;48.884;2.258;2022-12-07T09:16:43;6.10;99.90
41058;DHT22;27499;48.884;2.258;2022-12-07T09:19:10;6.10;99.90
41058;DHT22;27499;48.884;2.258;2022-12-07T09:21:37;6.20;99.90
41058;DHT22;27499;48.884;2.258;2022-12-07T09:24:04;6.20;99.90
41058;DHT22;27499;48.884;2.258;2022-12-07T09:26:31;6.20;99.90
41058;DHT22;27499;48.884;2.258;2022-12-07T09:28:58;6.20;99.90
41058;DHT22;27499;48.884;2.258;2022-12-07T09:31:25;6.30;99.90
41058;DHT22;27499;48.884;2.258;2022-12-07T09:33:56;6.30;99.90
41058;DHT22;27499;48.884;2.258;2022-12-07T09:36:24;6.30;99.90
41058;DHT22;27499;48.884;2.258;2022-12-07T09:38:51;6.20;99.90
41058;DHT22;27499;48.884;2.258;2022-12-07T09:41:18;6.30;99.90
41058;DHT22;27499;48.884;2.258;2022-12-07T09:43:46;6.30;99.90
41058;DHT22;27499;48.884;2.258;2022-12-07T09:46:15;6.30;99.90
41058;DHT22;27499;48.884;2.258;2022-12-07T09:48:44;6.30;99.90
41058;DHT22;27499;48.884;2.258;2022-12-07T09:51:21;6.40;99.90
41058;DHT22;27499;48.884;2.258;2022-12-07T09:53:53;6.40;99.90
41058;DHT22;27499;48.884;2.258;2022-12-07T09:56:21;6.30;99.90
41058;DHT22;27499;48.884;2.258;2022-12-07T09:58:50;6.40;99.90
41058;DHT22;27499;48.884;2.258;2022-12-07T10:01:20;6.30;99.90
41058;DHT22;27499;48.884;2.258;2022-12-07T10:06:36;6.30;99.90
41058;DHT22;27499;48.884;2.258;2022-12-07T10:09:12;6.30;99.90
41058;DHT22;27499;48.884;2.258;2022-12-07T10:12:02;6.40;99.90
41058;DHT22;27499;48.884;2.258;2022-12-07T10:14:33;6.50;99.90
41058;DHT22;27499;48.884;2.258;2022-12-07T10:17:38;6.50;99.90
41058;DHT22;27499;48.884;2.258;2022-12-07T10:20:26;6.50;99.90
41058;DHT22;27499;48.884;2.258;2022-12-07T10:23:00;6.50;99.90
41058;DHT22;27499;48.884;2.258;2022-12-07T10:25:34;6.60;99.90
41058;DHT22;27499;48.884;2.258;2022-12-07T10:28:21;6.60;99.90
41058;DHT22;27499;48.884;2.258;2022-12-07T10:31:01;6.60;99.90
41058;DHT22;27499;48.884;2.258;2022-12-07T10:33:38;6.60;99.90
41058;DHT22;27499;48.884;2.258;2022-12-07T10:38:53;6.60;99.90
41058;DHT22;27499;48.884;2.258;2022-12-07T10:41:25;6.60;99.90
41058;DHT22;27499;48.884;2.258;2022-12-07T10:43:54;6.70;99.90
41058;DHT22;27499;48.884;2.258;2022-12-07T11:00:36;6.90;99.90
41058;DHT22;27499;48.884;2.258;2022-12-07T11:08:45;7.00;99.90
41058;DHT22;27499;48.884;2.258;2022-12-07T11:11:35;7.00;99.90
41058;DHT22;27499;48.884;2.258;2022-12-07T11:16:50;7.10;99.90
41058;DHT22;27499;48.884;2.258;2022-12-07T11:19:31;7.20;99.90
41058;DHT22;27499;48.884;2.258;2022-12-07T11:22:06;7.20;99.90
41058;DHT22;27499;48.884;2.258;2022-12-07T11:34:15;7.20;99.90
41058;DHT22;27499;48.884;2.258;2022-12-07T11:36:48;7.30;99.90
41058;DHT22;27499;48.884;2.258;2022-12-07T11:39:34;7.30;99.90
41058;DHT22;27499;48.884;2.258;2022-12-07T11:42:24;7.30;99.90
41058;DHT22;27499;48.884;2.258;2022-12-07T11:45:10;7.30;99.90
41058;DHT22;27499;48.884;2.258;2022-12-07T11:48:00;7.30;99.90
41058;DHT22;27499;48.884;2.258;2022-12-07T11:50:38;7.30;99.90
41058;DHT22;27499;48.884;2.258;2022-12-07T11:53:17;7.30;99.90
41058;DHT22;27499;48.884;2.258;2022-12-07T11:55:55;7.30;99.90
41058;DHT22;27499;48.884;2.258;2022-12-07T12:06:38;7.40;99.90
41058;DHT22;27499;48.884;2.258;2022-12-07T12:20:49;7.40;99.90
41058;DHT22;27499;48.884;2.258;2022-12-07T12:23:44;7.40;99.90
41058;DHT22;27499;48.884;2.258;2022-12-07T12:26:24;7.40;99.90
41058;DHT22;27499;48.884;2.258;2022-12-07T12:28:59;7.40;99.90
41058;DHT22;27499;48.884;2.258;2022-12-07T12:34:00;7.40;99.90
41058;DHT22;27499;48.884;2.258;2022-12-07T12:36:44;7.50;99.90
41058;DHT22;27499;48.884;2.258;2022-12-07T12:39:14;7.50;99.90
41058;DHT22;27499;48.884;2.258;2022-12-07T12:51:59;7.60;99.90
41058;DHT22;27499;48.884;2.258;2022-12-07T12:54:33;7.60;99.90
41058;DHT22;27499;48.884;2.258;2022-12-07T12:57:26;7.60;99.90
41058;DHT22;27499;48.884;2.258;2022-12-07T13:02:35;7.60;99.90
41058;DHT22;27499;48.884;2.258;2022-12-07T13:13:00;7.60;99.90
41058;DHT22;27499;48.884;2.258;2022-12-07T13:15:52;7.70;99.90
41058;DHT22;27499;48.884;2.258;2022-12-07T13:18:25;7.70;99.90
41058;DHT22;27499;48.884;2.258;2022-12-07T13:26:23;7.80;99.90
41058;DHT22;27499;48.884;2.258;2022-12-07T13:28:52;7.70;99.90
41058;DHT22;27499;48.884;2.258;2022-12-07T13:34:03;7.70;99.90
41058;DHT22;27499;48.884;2.258;2022-12-07T13:36:37;7.80;99.90
41058;DHT22;27499;48.884;2.258;2022-12-07T13:39:21;7.80;99.90
41058;DHT22;27499;48.884;2.258;2022-12-07T13:41:54;7.80;99.90
41058;DHT22;27499;48.884;2.258;2022-12-07T13:44:22;7.80;99.90
41058;DHT22;27499;48.884;2.258;2022-12-07T13:49:52;7.80;99.90
41058;DHT22;27499;48.884;2.258;2022-12-07T13:54:59;7.80;99.90
41058;DHT22;27499;48.884;2.258;2022-12-07T13:57:29;7.80;99.90
41058;DHT22;27499;48.884;2.258;2022-12-07T14:00:04;7.80;99.90
41058;DHT22;27499;48.884;2.258;2022-12-07T14:02:33;7.80;99.90
41058;DHT22;27499;48.884;2.258;2022-12-07T14:05:24;7.80;99.90
41058;DHT22;27499;48.884;2.258;2022-12-07T14:10:31;7.70;99.90
41058;DHT22;27499;48.884;2.258;2022-12-07T14:13:00;7.80;99.90
41058;DHT22;27499;48.884;2.258;2022-12-07T14:15:32;7.80;99.90
41058;DHT22;27499;48.884;2.258;2022-12-07T14:18:02;7.80;99.90
41058;DHT22;27499;48.884;2.258;2022-12-07T14:23:00;7.80;99.90
41058;DHT22;27499;48.884;2.258;2022-12-07T14:25:46;7.80;99.90
41058;DHT22;27499;48.884;2.258;2022-12-07T14:28:30;7.80;99.90
41058;DHT22;27499;48.884;2.258;2022-12-07T14:30:58;7.80;99.90
41058;DHT22;27499;48.884;2.258;2022-12-07T14:33:26;7.80;99.90
41058;DHT22;27499;48.884;2.258;2022-12-07T14:35:53;7.80;99.90
41058;DHT22;27499;48.884;2.258;2022-12-07T14:38:25;7.70;99.90
41058;DHT22;27499;48.884;2.258;2022-12-07T14:40:53;7.80;99.90
41058;DHT22;27499;48.884;2.258;2022-12-07T14:43:20;7.70;99.90
41058;DHT22;27499;48.884;2.258;2022-12-07T14:45:47;7.80;99.90
41058;DHT22;27499;48.884;2.258;2022-12-07T14:48:15;7.80;99.90
41058;DHT22;27499;48.884;2.258;2022-12-07T14:51:02;7.80;99.90
41058;DHT22;27499;48.884;2.258;2022-12-07T14:53:51;7.80;99.90
41058;DHT22;27499;48.884;2.258;2022-12-07T14:56:23;7.90;99.90
41058;DHT22;27499;48.884;2.258;2022-12-07T14:58:50;7.90;99.90
41058;DHT22;27499;48.884;2.258;2022-12-07T15:01:18;7.90;99.90
41058;DHT22;27499;48.884;2.258;2022-12-07T15:03:44;7.90;99.90
41058;DHT22;27499;48.884;2.258;2022-12-07T15:06:16;7.90;99.90
41058;DHT22;27499;48.884;2.258;2022-12-07T15:08:44;8.00;99.90
41058;DHT22;27499;48.884;2.258;2022-12-07T15:11:13;8.00;99.90
41058;DHT22;27499;48.884;2.258;2022-12-07T15:13:40;7.90;99.90
41058;DHT22;27499;48.884;2.258;2022-12-07T15:16:26;7.90;99.90
41058;DHT22;27499;48.884;2.258;2022-12-07T15:19:16;7.90;99.90
41058;DHT22;27499;48.884;2.258;2022-12-07T15:21:58;7.90;99.90
41058;DHT22;27499;48.884;2.258;2022-12-07T15:24:26;7.90;99.90
41058;DHT22;27499;48.884;2.258;2022-12-07T15:26:54;7.90;99.90
41058;DHT22;27499;48.884;2.258;2022-12-07T15:29:21;7.90;99.90
41058;DHT22;27499;48.884;2.258;2022-12-07T15:31:50;7.90;99.90
41058;DHT22;27499;48.884;2.258;2022-12-07T15:34:24;7.90;99.90
41058;DHT22;27499;48.884;2.258;2022-12-07T15:36:52;7.90;99.90
41058;DHT22;27499;48.884;2.258;2022-12-07T15:39:19;7.90;99.90
41058;DHT22;27499;48.884;2.258;2022-12-07T15:41:46;7.90;99.90
41058;DHT22;27499;48.884;2.258;2022-12-07T15:44:14;7.90;99.90
41058;DHT22;27499;48.884;2.258;2022-12-07T15:46:59;7.90;99.90
41058;DHT22;27499;48.884;2.258;2022-12-07T15:49:27;7.80;99.90
41058;DHT22;27499;48.884;2.258;2022-12-07T15:51:54;7.80;99.90
41058;DHT22;27499;48.884;2.258;2022-12-07T15:54:26;7.80;99.90
41058;DHT22;27499;48.884;2.258;2022-12-07T15:56:54;7.80;99.90
41058;DHT22;27499;48.884;2.258;2022-12-07T15:59:21;7.80;99.90
41058;DHT22;27499;48.884;2.258;2022-12-07T16:01:48;7.80;99.90
41058;DHT22;27499;48.884;2.258;2022-12-07T16:04:15;7.80;99.90
41058;DHT22;27499;48.884;2.258;2022-12-07T16:06:42;7.80;99.90
41058;DHT22;27499;48.884;2.258;2022-12-07T16:09:09;7.80;99.90
41058;DHT22;27499;48.884;2.258;2022-12-07T16:11:37;7.80;99.90
41058;DHT22;27499;48.884;2.258;2022-12-07T16:14:03;7.80;99.90
41058;DHT22;27499;48.884;2.258;2022-12-07T16:16:31;7.80;99.90
41058;DHT22;27499;48.884;2.258;2022-12-07T16:18:58;7.80;99.90
41058;DHT22;27499;48.884;2.258;2022-12-07T16:21:25;7.80;99.90
41058;DHT22;27499;48.884;2.258;2022-12-07T16:23:52;7.70;99.90
41058;DHT22;27499;48.884;2.258;2022-12-07T16:26:21;7.80;99.90
41058;DHT22;27499;48.884;2.258;2022-12-07T16:28:49;7.80;99.90
41058;DHT22;27499;48.884;2.258;2022-12-07T16:31:19;7.80;99.90
41058;DHT22;27499;48.884;2.258;2022-12-07T16:33:46;7.80;99.90
41058;DHT22;27499;48.884;2.258;2022-12-07T16:36:14;7.70;99.90
41058;DHT22;27499;48.884;2.258;2022-12-07T16:39:03;7.70;99.90
41058;DHT22;27499;48.884;2.258;2022-12-07T16:41:33;7.70;99.90
41058;DHT22;27499;48.884;2.258;2022-12-07T16:44:03;7.70;99.90
41058;DHT22;27499;48.884;2.258;2022-12-07T16:46:35;7.70;99.90
41058;DHT22;27499;48.884;2.258;2022-12-07T16:49:03;7.70;99.90
41058;DHT22;27499;48.884;2.258;2022-12-07T16:51:30;7.70;99.90
41058;DHT22;27499;48.884;2.258;2022-12-07T16:53:57;7.70;99.90
41058;DHT22;27499;48.884;2.258;2022-12-07T16:56:24;7.60;99.90
41058;DHT22;27499;48.884;2.258;2022-12-07T16:58:53;7.60;99.90
41058;DHT22;27499;48.884;2.258;2022-12-07T17:01:22;7.60;99.90
41058;DHT22;27499;48.884;2.258;2022-12-07T17:03:50;7.60;99.90
41058;DHT22;27499;48.884;2.258;2022-12-07T17:06:22;7.60;99.90
41058;DHT22;27499;48.884;2.258;2022-12-07T17:08:50;7.60;99.90
41058;DHT22;27499;48.884;2.258;2022-12-07T17:11:22;7.60;99.90
41058;DHT22;27499;48.884;2.258;2022-12-07T17:13:49;7.60;99.90
41058;DHT22;27499;48.884;2.258;2022-12-07T17:16:35;7.60;99.90
41058;DHT22;27499;48.884;2.258;2022-12-07T17:19:07;7.60;99.90
41058;DHT22;27499;48.884;2.258;2022-12-07T17:21:35;7.50;99.90
41058;DHT22;27499;48.884;2.258;2022-12-07T17:24:04;7.60;99.90
41058;DHT22;27499;48.884;2.258;2022-12-07T17:26:32;7.50;99.90
41058;DHT22;27499;48.884;2.258;2022-12-07T17:29:03;7.50;99.90
41058;DHT22;27499;48.884;2.258;2022-12-07T17:31:30;7.50;99.90
41058;DHT22;27499;48.884;2.258;2022-12-07T17:33:59;7.50;99.90
41058;DHT22;27499;48.884;2.258;2022-12-07T17:36:28;7.40;99.90
41058;DHT22;27499;48.884;2.258;2022-12-07T17:38:56;7.40;99.90
41058;DHT22;27499;48.884;2.258;2022-12-07T17:41:27;7.40;99.90
41058;DHT22;27499;48.884;2.258;2022-12-07T17:44:16;7.40;99.90
41058;DHT22;27499;48.884;2.258;2022-12-07T17:46:44;7.40;99.90
41058;DHT22;27499;48.884;2.258;2022-12-07T17:49:12;7.30;99.90
41058;DHT22;27499;48.884;2.258;2022-12-07T17:51:39;7.30;99.90
41058;DHT22;27499;48.884;2.258;2022-12-07T17:54:25;7.30;99.90
41058;DHT22;27499;48.884;2.258;2022-12-07T17:56:52;7.30;99.90
41058;DHT22;27499;48.884;2.258;2022-12-07T17:59:19;7.20;99.90
41058;DHT22;27499;48.884;2.258;2022-12-07T18:01:46;7.20;99.90
41058;DHT22;27499;48.884;2.258;2022-12-07T18:04:13;7.20;99.90
41058;DHT22;27499;48.884;2.258;2022-12-07T18:06:40;7.20;99.90
41058;DHT22;27499;48.884;2.258;2022-12-07T18:09:12;7.20;99.90
41058;DHT22;27499;48.884;2.258;2022-12-07T18:11:39;7.20;99.90
41058;DHT22;27499;48.884;2.258;2022-12-07T18:14:05;7.20;99.90
41058;DHT22;27499;48.884;2.258;2022-12-07T18:16:33;7.20;99.90
41058;DHT22;27499;48.884;2.258;2022-12-07T18:19:03;7.30;99.90